sensor_id;sensor_type;location;lat;lon;timestamp;pressure;altitude;pressure_sealevel;temperature;humidity
39487;BME280;25173;50.430;18.926;2023-05-07T00:02:07;98386.50;;;13.06;66.86
39487;BME280;25173;50.430;18.926;2023-05-07T00:05:08;98384.03;;;13.15;66.74
39487;BME280;25173;50.430;18.926;2023-05-07T00:08:09;98383.13;;;13.25;66.56
39487;BME280;25173;50.430;18.926;2023-05-07T00:11:09;98383.03;;;13.35;66.37
39487;BME280;25173;50.430;18.926;2023-05-07T00:14:10;98381.91;;;13.41;65.93
39487;BME280;25173;50.430;18.926;2023-05-07T00:17:10;98383.47;;;13.47;65.84
39487;BME280;25173;50.430;18.926;2023-05-07T00:20:11;98386.97;;;13.52;65.60
39487;BME280;25173;50.430;18.926;2023-05-07T00:23:12;98392.19;;;13.49;65.36
39487;BME280;25173;50.430;18.926;2023-05-07T00:26:12;98393.63;;;13.41;65.48
39487;BME280;25173;50.430;18.926;2023-05-07T00:29:14;98393.63;;;13.41;65.39
39487;BME280;25173;50.430;18.926;2023-05-07T00:32:15;98388.16;;;13.41;65.52
39487;BME280;25173;50.430;18.926;2023-05-07T00:35:16;98390.88;;;13.46;65.35
39487;BME280;25173;50.430;18.926;2023-05-07T00:38:16;98391.34;;;13.53;65.20
39487;BME280;25173;50.430;18.926;2023-05-07T00:41:17;98397.88;;;13.57;65.01
39487;BME280;25173;50.430;18.926;2023-05-07T00:44:17;98385.78;;;13.64;64.82
39487;BME280;25173;50.430;18.926;2023-05-07T00:47:18;98396.69;;;13.69;64.56
39487;BME280;25173;50.430;18.926;2023-05-07T00:50:19;98407.66;;;13.64;64.38
39487;BME280;25173;50.430;18.926;2023-05-07T00:53:20;98405.56;;;13.55;64.54
39487;BME280;25173;50.430;18.926;2023-05-07T00:56:21;98404.22;;;13.53;64.50
39487;BME280;25173;50.430;18.926;2023-05-07T00:59:23;98400.72;;;13.47;64.65
39487;BME280;25173;50.430;18.926;2023-05-07T01:02:23;98401.81;;;13.46;64.70
39487;BME280;25173;50.430;18.926;2023-05-07T01:05:26;98408.41;;;13.45;64.59
39487;BME280;25173;50.430;18.926;2023-05-07T01:08:28;98406.81;;;13.39;64.62
39487;BME280;25173;50.430;18.926;2023-05-07T01:11:30;98408.50;;;13.30;64.46
39487;BME280;25173;50.430;18.926;2023-05-07T01:14:31;98410.16;;;13.31;64.65
39487;BME280;25173;50.430;18.926;2023-05-07T01:17:38;98411.50;;;13.34;64.61
39487;BME280;25173;50.430;18.926;2023-05-07T01:20:43;98412.56;;;13.38;64.66
39487;BME280;25173;50.430;18.926;2023-05-07T01:23:44;98408.41;;;13.45;64.50
39487;BME280;25173;50.430;18.926;2023-05-07T01:26:46;98423.09;;;13.54;64.44
39487;BME280;25173;50.430;18.926;2023-05-07T01:29:49;98423.88;;;13.60;64.04
39487;BME280;25173;50.430;18.926;2023-05-07T01:33:01;98418.09;;;13.62;64.16
39487;BME280;25173;50.430;18.926;2023-05-07T01:36:05;98422.81;;;13.56;64.08
39487;BME280;25173;50.430;18.926;2023-05-07T01:39:08;98430.22;;;13.50;64.04
39487;BME280;25173;50.430;18.926;2023-05-07T01:42:09;98419.13;;;13.37;63.99
39487;BME280;25173;50.430;18.926;2023-05-07T01:45:10;98421.16;;;13.26;64.18
39487;BME280;25173;50.430;18.926;2023-05-07T01:48:12;98422.25;;;13.25;64.50
39487;BME280;25173;50.430;18.926;2023-05-07T01:51:14;98421.41;;;13.25;64.37
39487;BME280;25173;50.430;18.926;2023-05-07T01:54:14;98426.31;;;13.28;64.35
39487;BME280;25173;50.430;18.926;2023-05-07T01:57:16;98426.91;;;13.25;64.34
39487;BME280;25173;50.430;18.926;2023-05-07T02:00:16;98423.34;;;13.19;64.39
39487;BME280;25173;50.430;18.926;2023-05-07T02:03:18;98420.09;;;13.17;64.23
39487;BME280;25173;50.430;18.926;2023-05-07T02:06:27;98412.19;;;13.15;64.22
39487;BME280;25173;50.430;18.926;2023-05-07T02:09:32;98417.66;;;13.15;64.15
39487;BME280;25173;50.430;18.926;2023-05-07T02:12:33;98412.19;;;13.15;64.21
39487;BME280;25173;50.430;18.926;2023-05-07T02:15:33;98414.63;;;13.17;64.38
39487;BME280;25173;50.430;18.926;2023-05-07T02:18:36;98418.41;;;13.21;64.38
39487;BME280;25173;50.430;18.926;2023-05-07T02:21:36;98423.34;;;13.24;64.35
39487;BME280;25173;50.430;18.926;2023-05-07T02:24:37;98416.78;;;13.25;64.18
39487;BME280;25173;50.430;18.926;2023-05-07T02:27:38;98422.53;;;13.24;64.09
39487;BME280;25173;50.430;18.926;2023-05-07T02:30:39;98418.19;;;13.12;63.93
39487;BME280;25173;50.430;18.926;2023-05-07T02:33:40;98426.47;;;13.02;64.01
39487;BME280;25173;50.430;18.926;2023-05-07T02:36:43;98428.44;;;12.97;64.06
39487;BME280;25173;50.430;18.926;2023-05-07T02:39:47;98426.56;;;12.87;63.99
39487;BME280;25173;50.430;18.926;2023-05-07T02:42:47;98425.25;;;12.79;64.01
39487;BME280;25173;50.430;18.926;2023-05-07T02:45:48;98425.28;;;12.69;64.03
39487;BME280;25173;50.430;18.926;2023-05-07T02:48:49;98436.56;;;12.53;64.23
39487;BME280;25173;50.430;18.926;2023-05-07T02:51:50;98439.63;;;12.41;64.40
39487;BME280;25173;50.430;18.926;2023-05-07T02:54:55;98434.47;;;12.29;64.35
39487;BME280;25173;50.430;18.926;2023-05-07T02:57:55;98436.19;;;12.15;64.78
39487;BME280;25173;50.430;18.926;2023-05-07T03:00:57;98436.44;;;12.09;64.93
39487;BME280;25173;50.430;18.926;2023-05-07T03:04:23;98441.38;;;12.01;65.10
39487;BME280;25173;50.430;18.926;2023-05-07T03:07:24;98446.28;;;12.04;65.27
39487;BME280;25173;50.430;18.926;2023-05-07T03:10:25;98447.38;;;12.14;65.27
39487;BME280;25173;50.430;18.926;2023-05-07T03:13:25;98438.84;;;12.25;65.14
39487;BME280;25173;50.430;18.926;2023-05-07T03:16:26;98453.03;;;12.32;65.08
39487;BME280;25173;50.430;18.926;2023-05-07T03:19:28;98459.84;;;12.40;65.01
39487;BME280;25173;50.430;18.926;2023-05-07T03:22:28;98457.94;;;12.35;64.81
39487;BME280;25173;50.430;18.926;2023-05-07T03:25:29;98462.31;;;12.36;64.93
39487;BME280;25173;50.430;18.926;2023-05-07T03:28:32;98463.66;;;12.39;64.84
39487;BME280;25173;50.430;18.926;2023-05-07T03:31:37;98478.94;;;12.45;64.78
39487;BME280;25173;50.430;18.926;2023-05-07T03:34:37;98478.38;;;12.48;64.80
39487;BME280;25173;50.430;18.926;2023-05-07T03:37:38;98475.91;;;12.57;64.53
39487;BME280;25173;50.430;18.926;2023-05-07T03:40:39;98477.78;;;12.66;64.50
39487;BME280;25173;50.430;18.926;2023-05-07T03:43:40;98491.13;;;12.73;64.11
39487;BME280;25173;50.430;18.926;2023-05-07T03:46:44;98487.00;;;12.80;63.95
39487;BME280;25173;50.430;18.926;2023-05-07T03:49:46;98482.59;;;12.84;63.68
39487;BME280;25173;50.430;18.926;2023-05-07T03:52:48;98482.06;;;12.88;63.60
39487;BME280;25173;50.430;18.926;2023-05-07T03:55:51;98486.13;;;12.90;63.49
39487;BME280;25173;50.430;18.926;2023-05-07T03:58:52;98487.75;;;12.91;63.39
39487;BME280;25173;50.430;18.926;2023-05-07T04:01:53;98491.03;;;12.93;63.29
39487;BME280;25173;50.430;18.926;2023-05-07T04:04:57;98497.56;;;12.97;63.16
39487;BME280;25173;50.430;18.926;2023-05-07T04:07:59;98494.56;;;13.04;63.03
39487;BME280;25173;50.430;18.926;2023-05-07T04:11:09;98498.88;;;13.05;62.92
39487;BME280;25173;50.430;18.926;2023-05-07T04:14:12;98510.97;;;12.99;62.79
39487;BME280;25173;50.430;18.926;2023-05-07T04:17:16;98513.97;;;12.97;62.88
39487;BME280;25173;50.430;18.926;2023-05-07T04:20:17;98512.63;;;12.95;62.82
39487;BME280;25173;50.430;18.926;2023-05-07T04:23:23;98523.28;;;12.96;62.87
39487;BME280;25173;50.430;18.926;2023-05-07T04:26:30;98515.91;;;12.97;62.80
39487;BME280;25173;50.430;18.926;2023-05-07T04:29:35;98516.44;;;12.99;62.76
39487;BME280;25173;50.430;18.926;2023-05-07T04:32:45;98532.84;;;12.99;62.69
39487;BME280;25173;50.430;18.926;2023-05-07T04:36:04;98529.78;;;13.05;62.57
39487;BME280;25173;50.430;18.926;2023-05-07T04:39:10;98537.22;;;13.00;62.49
39487;BME280;25173;50.430;18.926;2023-05-07T04:42:22;98541.34;;;12.92;62.29
39487;BME280;25173;50.430;18.926;2023-05-07T04:45:24;98544.94;;;12.77;62.78
39487;BME280;25173;50.430;18.926;2023-05-07T04:48:27;98553.72;;;12.74;62.84
39487;BME280;25173;50.430;18.926;2023-05-07T04:51:33;98556.78;;;12.48;62.67
39487;BME280;25173;50.430;18.926;2023-05-07T04:54:34;98572.94;;;12.19;63.15
39487;BME280;25173;50.430;18.926;2023-05-07T04:57:36;98576.25;;;12.05;63.67
39487;BME280;25173;50.430;18.926;2023-05-07T05:00:41;98583.03;;;12.08;63.85
39487;BME280;25173;50.430;18.926;2023-05-07T05:03:43;98579.22;;;12.04;63.72
39487;BME280;25173;50.430;18.926;2023-05-07T05:06:44;98580.06;;;11.99;63.87
39487;BME280;25173;50.430;18.926;2023-05-07T05:09:46;98583.59;;;11.95;63.93
39487;BME280;25173;50.430;18.926;2023-05-07T05:12:46;98584.94;;;11.87;63.78
39487;BME280;25173;50.430;18.926;2023-05-07T05:15:47;98591.19;;;11.73;63.99
39487;BME280;25173;50.430;18.926;2023-05-07T05:18:48;98590.06;;;11.53;64.28
39487;BME280;25173;50.430;18.926;2023-05-07T05:21:52;98587.34;;;11.53;64.52
39487;BME280;25173;50.430;18.926;2023-05-07T05:24:52;98599.06;;;11.64;64.51
39487;BME280;25173;50.430;18.926;2023-05-07T05:27:56;98601.59;;;11.76;64.39
39487;BME280;25173;50.430;18.926;2023-05-07T05:30:57;98608.38;;;11.73;64.16
39487;BME280;25173;50.430;18.926;2023-05-07T05:34:02;98614.91;;;11.67;64.41
39487;BME280;25173;50.430;18.926;2023-05-07T05:37:02;98623.09;;;11.62;64.29
39487;BME280;25173;50.430;18.926;2023-05-07T05:40:04;98626.91;;;11.61;64.31
39487;BME280;25173;50.430;18.926;2023-05-07T05:43:05;98631.50;;;11.45;64.09
39487;BME280;25173;50.430;18.926;2023-05-07T05:46:06;98628.97;;;11.18;64.44
39487;BME280;25173;50.430;18.926;2023-05-07T05:49:09;98631.06;;;11.06;65.18
39487;BME280;25173;50.430;18.926;2023-05-07T05:52:12;98641.72;;;11.03;65.10
39487;BME280;25173;50.430;18.926;2023-05-07T05:55:14;98636.50;;;10.96;65.15
39487;BME280;25173;50.430;18.926;2023-05-07T05:58:15;98644.63;;;10.91;65.05
39487;BME280;25173;50.430;18.926;2023-05-07T06:01:20;98655.41;;;10.71;65.08
39487;BME280;25173;50.430;18.926;2023-05-07T06:04:24;98652.66;;;10.66;65.62
39487;BME280;25173;50.430;18.926;2023-05-07T06:07:25;98649.88;;;10.61;65.77
39487;BME280;25173;50.430;18.926;2023-05-07T06:10:25;98652.34;;;10.62;65.86
39487;BME280;25173;50.430;18.926;2023-05-07T06:13:28;98660.59;;;10.72;65.41
39487;BME280;25173;50.430;18.926;2023-05-07T06:16:29;98661.44;;;10.73;65.56
39487;BME280;25173;50.430;18.926;2023-05-07T06:19:30;98656.00;;;10.78;65.42
39487;BME280;25173;50.430;18.926;2023-05-07T06:22:32;98657.44;;;10.90;65.47
39487;BME280;25173;50.430;18.926;2023-05-07T06:25:34;98658.13;;;11.18;65.28
39487;BME280;25173;50.430;18.926;2023-05-07T06:28:34;98657.38;;;11.33;64.78
39487;BME280;25173;50.430;18.926;2023-05-07T06:31:37;98664.22;;;11.40;64.50
39487;BME280;25173;50.430;18.926;2023-05-07T06:34:42;98666.72;;;11.52;64.42
39487;BME280;25173;50.430;18.926;2023-05-07T06:37:43;98667.31;;;11.69;64.08
39487;BME280;25173;50.430;18.926;2023-05-07T06:40:49;98664.09;;;11.77;63.74
39487;BME280;25173;50.430;18.926;2023-05-07T06:43:50;98665.19;;;11.76;63.22
39487;BME280;25173;50.430;18.926;2023-05-07T06:47:06;98676.28;;;11.59;63.23
39487;BME280;25173;50.430;18.926;2023-05-07T06:50:07;98675.47;;;11.54;63.37
39487;BME280;25173;50.430;18.926;2023-05-07T06:53:08;98682.25;;;11.51;63.51
39487;BME280;25173;50.430;18.926;2023-05-07T06:56:09;98683.06;;;11.52;63.44
39487;BME280;25173;50.430;18.926;2023-05-07T06:59:11;98689.94;;;11.59;63.48
39487;BME280;25173;50.430;18.926;2023-05-07T07:02:14;98694.66;;;11.74;63.02
39487;BME280;25173;50.430;18.926;2023-05-07T07:05:15;98690.56;;;11.87;63.19
39487;BME280;25173;50.430;18.926;2023-05-07T07:08:16;98686.00;;;12.13;63.12
39487;BME280;25173;50.430;18.926;2023-05-07T07:11:18;98698.56;;;12.39;62.69
39487;BME280;25173;50.430;18.926;2023-05-07T07:14:19;98694.75;;;12.60;62.35
39487;BME280;25173;50.430;18.926;2023-05-07T07:17:24;98698.84;;;12.73;61.69
39487;BME280;25173;50.430;18.926;2023-05-07T07:20:25;98705.69;;;12.80;61.68
39487;BME280;25173;50.430;18.926;2023-05-07T07:23:26;98699.09;;;12.92;61.46
39487;BME280;25173;50.430;18.926;2023-05-07T07:26:27;98708.66;;;12.99;61.06
39487;BME280;25173;50.430;18.926;2023-05-07T07:29:28;98708.94;;;13.03;60.67
39487;BME280;25173;50.430;18.926;2023-05-07T07:32:29;98716.88;;;12.94;60.66
39487;BME280;25173;50.430;18.926;2023-05-07T07:35:31;98718.50;;;12.95;60.68
39487;BME280;25173;50.430;18.926;2023-05-07T07:38:32;98725.31;;;13.03;60.63
39487;BME280;25173;50.430;18.926;2023-05-07T07:41:33;98732.69;;;13.12;60.22
39487;BME280;25173;50.430;18.926;2023-05-07T07:44:34;98738.16;;;13.12;60.11
39487;BME280;25173;50.430;18.926;2023-05-07T07:47:40;98734.88;;;13.10;59.90
39487;BME280;25173;50.430;18.926;2023-05-07T07:50:41;98729.72;;;12.83;59.67
39487;BME280;25173;50.430;18.926;2023-05-07T07:53:42;98737.09;;;12.68;60.31
39487;BME280;25173;50.430;18.926;2023-05-07T07:56:43;98742.84;;;12.61;60.40
39487;BME280;25173;50.430;18.926;2023-05-07T07:59:46;98742.31;;;12.59;60.55
39487;BME280;25173;50.430;18.926;2023-05-07T08:02:49;98747.22;;;12.52;60.60
39487;BME280;25173;50.430;18.926;2023-05-07T08:05:56;98749.41;;;12.55;60.81
39487;BME280;25173;50.430;18.926;2023-05-07T08:08:57;98749.69;;;12.64;60.86
39487;BME280;25173;50.430;18.926;2023-05-07T08:11:58;98753.78;;;12.66;60.51
39487;BME280;25173;50.430;18.926;2023-05-07T08:14:59;98745.31;;;12.78;60.75
39487;BME280;25173;50.430;18.926;2023-05-07T08:18:02;98743.91;;;13.01;60.68
39487;BME280;25173;50.430;18.926;2023-05-07T08:21:04;98748.03;;;13.18;60.44
39487;BME280;25173;50.430;18.926;2023-05-07T08:24:06;98752.34;;;13.40;60.03
39487;BME280;25173;50.430;18.926;2023-05-07T08:27:07;98750.38;;;13.60;59.65
39487;BME280;25173;50.430;18.926;2023-05-07T08:30:08;98753.81;;;13.91;59.59
39487;BME280;25173;50.430;18.926;2023-05-07T08:33:10;98761.13;;;14.06;58.81
39487;BME280;25173;50.430;18.926;2023-05-07T08:36:10;98761.59;;;14.18;58.41
39487;BME280;25173;50.430;18.926;2023-05-07T08:39:11;98771.56;;;13.99;57.75
39487;BME280;25173;50.430;18.926;2023-05-07T08:42:12;98779.03;;;13.78;58.21
39487;BME280;25173;50.430;18.926;2023-05-07T08:45:17;98778.22;;;13.83;58.59
39487;BME280;25173;50.430;18.926;2023-05-07T08:48:22;98788.81;;;13.94;58.03
39487;BME280;25173;50.430;18.926;2023-05-07T08:51:31;98787.69;;;14.06;57.81
39487;BME280;25173;50.430;18.926;2023-05-07T08:54:33;98788.56;;;13.96;57.15
39487;BME280;25173;50.430;18.926;2023-05-07T08:57:35;98790.34;;;13.62;57.60
39487;BME280;25173;50.430;18.926;2023-05-07T09:00:38;98805.69;;;13.42;57.91
39487;BME280;25173;50.430;18.926;2023-05-07T09:03:42;98813.38;;;13.30;58.12
39487;BME280;25173;50.430;18.926;2023-05-07T09:06:45;98805.97;;;13.05;58.29
39487;BME280;25173;50.430;18.926;2023-05-07T09:09:48;98808.16;;;12.98;58.49
39487;BME280;25173;50.430;18.926;2023-05-07T09:12:50;98812.00;;;12.87;58.48
39487;BME280;25173;50.430;18.926;2023-05-07T09:15:51;98817.47;;;13.02;59.15
39487;BME280;25173;50.430;18.926;2023-05-07T09:18:54;98814.44;;;13.44;58.89
39487;BME280;25173;50.430;18.926;2023-05-07T09:22:04;98813.53;;;13.84;58.22
39487;BME280;25173;50.430;18.926;2023-05-07T09:25:27;98814.56;;;13.98;57.20
39487;BME280;25173;50.430;18.926;2023-05-07T09:28:28;98817.28;;;14.04;57.47
39487;BME280;25173;50.430;18.926;2023-05-07T09:31:29;98819.47;;;14.07;57.29
39487;BME280;25173;50.430;18.926;2023-05-07T09:34:30;98819.97;;;14.09;57.36
39487;BME280;25173;50.430;18.926;2023-05-07T09:37:31;98823.03;;;14.07;57.21
39487;BME280;25173;50.430;18.926;2023-05-07T09:40:33;98826.31;;;14.04;57.13
39487;BME280;25173;50.430;18.926;2023-05-07T09:43:39;98823.06;;;13.97;56.06
39487;BME280;25173;50.430;18.926;2023-05-07T09:46:43;98823.94;;;13.82;57.27
39487;BME280;25173;50.430;18.926;2023-05-07T09:49:56;98824.28;;;13.60;56.85
39487;BME280;25173;50.430;18.926;2023-05-07T09:53:01;98835.28;;;13.30;57.00
39487;BME280;25173;50.430;18.926;2023-05-07T09:56:04;98837.72;;;13.01;57.77
39487;BME280;25173;50.430;18.926;2023-05-07T09:59:07;98842.38;;;13.11;58.00
39487;BME280;25173;50.430;18.926;2023-05-07T10:02:09;98843.19;;;13.42;58.29
39487;BME280;25173;50.430;18.926;2023-05-07T10:05:18;98852.44;;;13.76;57.59
39487;BME280;25173;50.430;18.926;2023-05-07T10:08:21;98845.75;;;14.03;57.30
39487;BME280;25173;50.430;18.926;2023-05-07T10:11:24;98842.88;;;14.33;57.14
39487;BME280;25173;50.430;18.926;2023-05-07T10:14:27;98850.94;;;14.68;56.56
39487;BME280;25173;50.430;18.926;2023-05-07T10:17:29;98861.69;;;14.99;56.04
39487;BME280;25173;50.430;18.926;2023-05-07T10:20:31;98866.75;;;15.21;55.37
39487;BME280;25173;50.430;18.926;2023-05-07T10:23:34;98864.59;;;15.18;54.98
39487;BME280;25173;50.430;18.926;2023-05-07T10:26:37;98870.16;;;15.07;54.75
39487;BME280;25173;50.430;18.926;2023-05-07T10:30:00;98862.78;;;15.03;54.23
39487;BME280;25173;50.430;18.926;2023-05-07T10:33:08;98871.28;;;15.01;54.48
39487;BME280;25173;50.430;18.926;2023-05-07T10:36:13;98878.00;;;14.85;54.15
39487;BME280;25173;50.430;18.926;2023-05-07T10:39:14;98880.81;;;14.70;54.38
39487;BME280;25173;50.430;18.926;2023-05-07T10:42:15;98874.56;;;14.64;54.70
39487;BME280;25173;50.430;18.926;2023-05-07T10:45:22;98886.84;;;14.72;54.83
39487;BME280;25173;50.430;18.926;2023-05-07T10:48:26;98880.31;;;14.63;54.48
39487;BME280;25173;50.430;18.926;2023-05-07T10:51:30;98882.56;;;14.56;54.48
39487;BME280;25173;50.430;18.926;2023-05-07T10:54:42;98888.38;;;14.39;54.28
39487;BME280;25173;50.430;18.926;2023-05-07T10:57:47;98884.34;;;14.21;54.79
39487;BME280;25173;50.430;18.926;2023-05-07T11:01:02;98889.53;;;14.18;54.75
39487;BME280;25173;50.430;18.926;2023-05-07T11:04:15;98879.38;;;14.28;55.03
39487;BME280;25173;50.430;18.926;2023-05-07T11:07:25;98886.47;;;14.34;54.80
39487;BME280;25173;50.430;18.926;2023-05-07T11:14:12;98890.34;;;14.28;54.60
39487;BME280;25173;50.430;18.926;2023-05-07T11:17:20;98899.91;;;14.36;54.66
39487;BME280;25173;50.430;18.926;2023-05-07T11:20:57;98895.22;;;14.31;54.88
39487;BME280;25173;50.430;18.926;2023-05-07T11:24:10;98900.16;;;14.45;54.86
39487;BME280;25173;50.430;18.926;2023-05-07T11:27:26;98900.06;;;14.65;54.81
39487;BME280;25173;50.430;18.926;2023-05-07T11:30:30;98914.00;;;14.73;54.21
39487;BME280;25173;50.430;18.926;2023-05-07T11:33:31;98912.09;;;14.69;54.20
39487;BME280;25173;50.430;18.926;2023-05-07T11:36:35;98917.06;;;14.62;53.98
39487;BME280;25173;50.430;18.926;2023-05-07T11:39:38;98918.19;;;14.56;53.86
39487;BME280;25173;50.430;18.926;2023-05-07T11:42:40;98921.47;;;14.58;54.18
39487;BME280;25173;50.430;18.926;2023-05-07T11:45:42;98924.16;;;14.68;54.19
39487;BME280;25173;50.430;18.926;2023-05-07T11:48:44;98916.34;;;14.95;53.91
39487;BME280;25173;50.430;18.926;2023-05-07T11:51:45;98911.47;;;15.26;53.86
39487;BME280;25173;50.430;18.926;2023-05-07T11:54:50;98906.31;;;15.53;53.27
39487;BME280;25173;50.430;18.926;2023-05-07T11:57:51;98904.34;;;15.59;52.53
39487;BME280;25173;50.430;18.926;2023-05-07T12:00:53;98910.09;;;15.58;52.68
39487;BME280;25173;50.430;18.926;2023-05-07T12:03:54;98910.56;;;15.70;52.26
39487;BME280;25173;50.430;18.926;2023-05-07T12:06:54;98910.16;;;15.81;52.23
39487;BME280;25173;50.430;18.926;2023-05-07T12:09:56;98919.09;;;15.68;51.85
39487;BME280;25173;50.430;18.926;2023-05-07T12:12:56;98919.75;;;15.55;52.05
39487;BME280;25173;50.430;18.926;2023-05-07T12:15:57;98928.66;;;15.37;52.11
39487;BME280;25173;50.430;18.926;2023-05-07T12:18:59;98930.34;;;15.33;52.34
39487;BME280;25173;50.430;18.926;2023-05-07T12:21:59;98925.97;;;15.27;52.09
39487;BME280;25173;50.430;18.926;2023-05-07T12:25:01;98929.63;;;15.17;52.36
39487;BME280;25173;50.430;18.926;2023-05-07T12:28:03;98933.66;;;15.30;52.17
39487;BME280;25173;50.430;18.926;2023-05-07T12:31:07;98935.47;;;15.44;52.12
39487;BME280;25173;50.430;18.926;2023-05-07T12:34:08;98931.78;;;15.59;51.70
39487;BME280;25173;50.430;18.926;2023-05-07T12:37:08;98932.28;;;15.66;51.98
39487;BME280;25173;50.430;18.926;2023-05-07T12:40:10;98938.31;;;15.68;51.70
39487;BME280;25173;50.430;18.926;2023-05-07T12:43:24;98938.25;;;15.73;51.52
39487;BME280;25173;50.430;18.926;2023-05-07T12:46:25;98940.94;;;15.78;51.54
39487;BME280;25173;50.430;18.926;2023-05-07T12:49:25;98937.69;;;15.76;51.21
39487;BME280;25173;50.430;18.926;2023-05-07T12:52:26;98944.81;;;15.77;51.01
39487;BME280;25173;50.430;18.926;2023-05-07T12:55:28;98935.44;;;15.78;50.86
39487;BME280;25173;50.430;18.926;2023-05-07T12:58:35;98940.16;;;15.78;50.38
39487;BME280;25173;50.430;18.926;2023-05-07T13:01:36;98947.03;;;15.75;50.84
39487;BME280;25173;50.430;18.926;2023-05-07T13:04:37;98944.22;;;15.80;51.04
39487;BME280;25173;50.430;18.926;2023-05-07T13:07:37;98949.38;;;15.87;51.05
39487;BME280;25173;50.430;18.926;2023-05-07T13:10:38;98948.28;;;15.88;50.91
39487;BME280;25173;50.430;18.926;2023-05-07T13:13:40;98950.59;;;16.05;50.91
39487;BME280;25173;50.430;18.926;2023-05-07T13:16:41;98946.28;;;16.22;50.69
39487;BME280;25173;50.430;18.926;2023-05-07T13:19:41;98940.56;;;16.43;50.69
39487;BME280;25173;50.430;18.926;2023-05-07T13:22:42;98946.72;;;16.53;50.05
39487;BME280;25173;50.430;18.926;2023-05-07T13:25:43;98945.41;;;16.51;50.08
39487;BME280;25173;50.430;18.926;2023-05-07T13:28:43;98946.88;;;16.43;49.80
39487;BME280;25173;50.430;18.926;2023-05-07T13:31:44;98959.34;;;16.36;49.92
39487;BME280;25173;50.430;18.926;2023-05-07T13:34:46;98952.66;;;16.18;49.91
39487;BME280;25173;50.430;18.926;2023-05-07T13:37:47;98949.63;;;15.90;50.09
39487;BME280;25173;50.430;18.926;2023-05-07T13:40:52;98971.31;;;15.63;50.50
39487;BME280;25173;50.430;18.926;2023-05-07T13:43:52;98967.03;;;15.42;50.67
39487;BME280;25173;50.430;18.926;2023-05-07T13:46:53;98972.38;;;15.23;50.94
39487;BME280;25173;50.430;18.926;2023-05-07T13:49:54;98973.03;;;15.05;51.24
39487;BME280;25173;50.430;18.926;2023-05-07T13:52:55;98968.47;;;14.90;51.39
39487;BME280;25173;50.430;18.926;2023-05-07T13:55:55;98974.53;;;14.87;51.35
39487;BME280;25173;50.430;18.926;2023-05-07T13:58:56;98964.09;;;14.84;51.35
39487;BME280;25173;50.430;18.926;2023-05-07T14:02:00;98963.56;;;14.82;51.39
39487;BME280;25173;50.430;18.926;2023-05-07T14:05:00;98970.69;;;14.83;51.71
39487;BME280;25173;50.430;18.926;2023-05-07T14:08:04;98969.59;;;14.84;51.72
39487;BME280;25173;50.430;18.926;2023-05-07T14:11:06;98975.63;;;14.86;51.77
39487;BME280;25173;50.430;18.926;2023-05-07T14:14:08;98977.59;;;14.75;51.80
39487;BME280;25173;50.430;18.926;2023-05-07T14:17:11;98980.63;;;14.69;51.76
39487;BME280;25173;50.430;18.926;2023-05-07T14:20:14;98984.22;;;14.64;51.93
39487;BME280;25173;50.430;18.926;2023-05-07T14:23:15;98989.97;;;14.73;51.98
39487;BME280;25173;50.430;18.926;2023-05-07T14:26:18;98984.72;;;14.82;51.73
39487;BME280;25173;50.430;18.926;2023-05-07T14:29:19;98984.41;;;14.88;51.72
39487;BME280;25173;50.430;18.926;2023-05-07T14:32:22;98993.66;;;15.02;51.62
39487;BME280;25173;50.430;18.926;2023-05-07T14:35:22;98992.75;;;15.12;51.39
39487;BME280;25173;50.430;18.926;2023-05-07T14:38:23;98995.44;;;15.22;51.37
39487;BME280;25173;50.430;18.926;2023-05-07T14:41:23;99002.31;;;15.25;50.95
39487;BME280;25173;50.430;18.926;2023-05-07T14:44:24;99008.94;;;15.19;50.85
39487;BME280;25173;50.430;18.926;2023-05-07T14:47:25;99010.34;;;15.06;51.02
39487;BME280;25173;50.430;18.926;2023-05-07T14:50:26;99018.41;;;14.87;51.09
39487;BME280;25173;50.430;18.926;2023-05-07T14:53:27;99016.84;;;14.61;51.20
39487;BME280;25173;50.430;18.926;2023-05-07T14:56:27;99031.16;;;14.48;51.67
39487;BME280;25173;50.430;18.926;2023-05-07T14:59:28;99024.56;;;14.33;51.93
39487;BME280;25173;50.430;18.926;2023-05-07T15:02:28;99019.97;;;14.14;51.97
39487;BME280;25173;50.430;18.926;2023-05-07T15:05:29;99025.97;;;14.00;52.28
39487;BME280;25173;50.430;18.926;2023-05-07T15:08:30;99026.28;;;13.99;52.49
39487;BME280;25173;50.430;18.926;2023-05-07T15:11:30;99031.75;;;13.94;52.51
39487;BME280;25173;50.430;18.926;2023-05-07T15:14:31;99031.19;;;13.87;52.59
39487;BME280;25173;50.430;18.926;2023-05-07T15:17:31;99029.00;;;13.79;52.55
39487;BME280;25173;50.430;18.926;2023-05-07T15:20:32;99044.09;;;13.76;52.57
39487;BME280;25173;50.430;18.926;2023-05-07T15:23:32;99042.44;;;13.75;52.77
39487;BME280;25173;50.430;18.926;2023-05-07T15:26:33;99043.53;;;13.79;52.63
39487;BME280;25173;50.430;18.926;2023-05-07T15:29:34;99045.19;;;13.85;52.83
39487;BME280;25173;50.430;18.926;2023-05-07T15:32:36;99046.28;;;13.99;52.86
39487;BME280;25173;50.430;18.926;2023-05-07T15:35:38;99045.72;;;14.08;52.60
39487;BME280;25173;50.430;18.926;2023-05-07T15:38:38;99041.03;;;14.18;52.57
39487;BME280;25173;50.430;18.926;2023-05-07T15:41:39;99040.75;;;14.25;52.33
39487;BME280;25173;50.430;18.926;2023-05-07T15:44:40;99037.47;;;14.28;52.33
39487;BME280;25173;50.430;18.926;2023-05-07T15:47:40;99036.66;;;14.27;52.12
39487;BME280;25173;50.430;18.926;2023-05-07T15:50:41;99033.91;;;14.27;52.13
39487;BME280;25173;50.430;18.926;2023-05-07T15:53:42;99039.94;;;14.29;52.29
39487;BME280;25173;50.430;18.926;2023-05-07T15:56:42;99041.59;;;14.20;51.89
39487;BME280;25173;50.430;18.926;2023-05-07T15:59:44;99040.78;;;14.10;52.18